Como, Tennessee
Current Conditions -  °F | °C
As of 5:35 PM on Thursday 18 Dec 2014 (Local Time) from KPHT Reporting Station
Overcast Overcast  
Wind Chill: 29°   Ceiling: 4400
Heat Index: 34°   Visibility: 10mi
Dew Point: 30°   Wind: 6mph
Humidity: 87%   Direction: 60°ENE
Pressure: 30.21"   Gusts: NA
Location:  36.29°N, 88.51°W
Report Text: KPHT 182335Z AUTO 06005KT 10SM OVC044 01/M01 A3021 RMK
Loading
Personal Weather Stations






























Interactive Weather Map New forecast layout! Learn more

10-Day Weather Forecast

Advertisements
Track Severe Weather on mobile